Lord Of The Glens — ZQOE9 — position and weather

sailwx.info

Track history (hours):
 
Tides and Currents Weather Stations Pressure Air Temp Water Temp Dewpoint Dewpoint Depression Visibility Wind Speed Wind Dir Waves Ship Positions

Lord Of The Glens

Operator: V Ships UK Ltd

Last reported at 2017-Jul-22 16:50 UTC. Time now 2017-Jul-22 18:28 UTC.
Position N 57°04' W 006°18'.

Length 45 m; draft 2.8 m.

Type: Passenger vessel. MMSI: 235000295.

Date/timePositionNaut miles runAvg speedWind from/ knotsBaromVisibWave heightAir tempDewpointWater temp
2017-Jul-22 16:50N 57°04' W 006°18'39 1.6
2017-Jul-21 16:48N 56°30' W 005°42'2 5.2
2017-Jul-21 16:30N 56°28' W 005°42'0 0.0
2017-Jul-21 16:00N 56°28' W 005°42'0 0.0
2017-Jul-21 15:30N 56°28' W 005°42'0 0.0
2017-Jul-21 15:00N 56°28' W 005°42'0 0.0
2017-Jul-21 14:30N 56°28' W 005°42'0 0.0
2017-Jul-21 14:00N 56°28' W 005°42'0 0.0
2017-Jul-21 13:30N 56°28' W 005°42'0 0.0
2017-Jul-21 13:00N 56°28' W 005°42'0 0.0
2017-Jul-21 12:30N 56°28' W 005°42'0 0.0
2017-Jul-21 12:00N 56°28' W 005°42'0 0.0
2017-Jul-21 11:30N 56°28' W 005°42'0 0.0
2017-Jul-21 11:00N 56°28' W 005°42'0 0.0
2017-Jul-21 10:30N 56°28' W 005°42'0 0.0
2017-Jul-21 10:00N 56°28' W 005°42'0 0.0
2017-Jul-21 09:30N 56°28' W 005°42'0 0.0
2017-Jul-21 09:00N 56°28' W 005°42'0 0.0
2017-Jul-21 08:30N 56°28' W 005°42'0 0.0
2017-Jul-21 08:00N 56°28' W 005°42'0 0.0
2017-Jul-21 07:30N 56°28' W 005°42'0 0.0
2017-Jul-21 07:00N 56°28' W 005°42'3 6.2
2017-Jul-21 06:30N 56°27' W 005°37'510.1
2017-Jul-21 06:00N 56°25' W 005°29'0 0.6
2017-Jul-21 05:30N 56°25' W 005°29'0 0.0
2017-Jul-21 04:59N 56°25' W 005°29'0 0.0
2017-Jul-21 04:11N 56°25' W 005°29'0 0.0
2017-Jul-21 04:00N 56°25' W 005°29'0 0.0
2017-Jul-21 03:24N 56°25' W 005°29'0 0.0
2017-Jul-21 03:00N 56°25' W 005°29'0 0.0
2017-Jul-21 02:29N 56°25' W 005°29'0 0.0
2017-Jul-21 02:00N 56°25' W 005°29'0 0.0
2017-Jul-21 01:28N 56°25' W 005°29'0 0.0
2017-Jul-21 00:59N 56°25' W 005°29'0 0.0
2017-Jul-21 00:30N 56°25' W 005°29'0 0.0
2017-Jul-20 23:56N 56°25' W 005°29'0 0.0
2017-Jul-20 21:52N 56°25' W 005°29'0 0.0
2017-Jul-20 20:55N 56°25' W 005°29'0 0.0
2017-Jul-20 20:15N 56°25' W 005°29'0 0.0
2017-Jul-20 20:00N 56°25' W 005°29'0 0.0
2017-Jul-20 19:30N 56°25' W 005°29'0 0.0
2017-Jul-20 18:58N 56°25' W 005°29'0 0.0
2017-Jul-20 18:29N 56°25' W 005°29'0 0.0
2017-Jul-20 17:55N 56°25' W 005°29'0 0.0
2017-Jul-20 17:26N 56°25' W 005°29'0 0.0
2017-Jul-20 16:57N 56°25' W 005°29'0 0.0
2017-Jul-20 16:30N 56°25' W 005°29'0 0.0
2017-Jul-20 16:00N 56°25' W 005°29'0 0.0
2017-Jul-20 15:27N 56°25' W 005°29'0 0.0
2017-Jul-20 14:39N 56°25' W 005°29'0 0.0
2017-Jul-20 14:00N 56°25' W 005°29'0 0.0
2017-Jul-20 13:21N 56°25' W 005°29'0 0.0
2017-Jul-20 10:57N 56°25' W 005°29'0 0.0
2017-Jul-20 10:11N 56°25' W 005°29'0 0.0
2017-Jul-20 09:53N 56°25' W 005°29'1 3.1
2017-Jul-20 09:30N 56°26' W 005°30'4 8.1
2017-Jul-20 09:00N 56°30' W 005°28'4 8.8
2017-Jul-20 08:30N 56°34' W 005°25'4 8.0
2017-Jul-20 08:00N 56°37' W 005°22'5 8.8
2017-Jul-20 07:25N 56°42' W 005°16'  
2017-Jul-14 11:21N 56°47' W 005°11'410.8
2017-Jul-14 11:00N 56°44' W 005°14'510.4
2017-Jul-14 10:30N 56°39' W 005°19'510.6
2017-Jul-14 10:00N 56°35' W 005°25'5 9.9
2017-Jul-14 09:30N 56°30' W 005°28'5 9.9
2017-Jul-14 08:59N 56°25' W 005°29'0 0.1
2017-Jul-14 04:36N 56°25' W 005°29'0 0.0
2017-Jul-14 04:18N 56°25' W 005°29'0 0.0
2017-Jul-14 00:03N 56°25' W 005°29'0 0.0
2017-Jul-13 23:45N 56°25' W 005°29'0 0.0
2017-Jul-13 23:27N 56°25' W 005°29'0 0.0
2017-Jul-13 19:57N 56°25' W 005°29'0 0.0
2017-Jul-13 17:19N 56°25' W 005°29'3 8.8
2017-Jul-13 17:00N 56°26' W 005°33'5 9.7
2017-Jul-13 16:30N 56°28' W 005°41'1 1.6
2017-Jul-13 15:59N 56°28' W 005°42'0 0.0
2017-Jul-13 15:23N 56°28' W 005°42'0 0.0
2017-Jul-13 14:56N 56°28' W 005°42'0 0.0
2017-Jul-13 14:23N 56°28' W 005°42'0 0.0
2017-Jul-13 13:53N 56°28' W 005°42'0 0.0
2017-Jul-13 13:23N 56°28' W 005°42'0 0.0
2017-Jul-13 12:59N 56°28' W 005°42'0 0.0
2017-Jul-13 11:41N 56°28' W 005°42'0 0.0
2017-Jul-13 11:29N 56°28' W 005°42'0 0.0
2017-Jul-13 10:20N 56°28' W 005°42'0 0.0
2017-Jul-13 09:59N 56°28' W 005°42'0 0.0
2017-Jul-13 09:30N 56°28' W 005°42'0 0.0
2017-Jul-13 09:00N 56°28' W 005°42'0 0.0
2017-Jul-13 08:30N 56°28' W 005°42'0 0.0
2017-Jul-13 08:00N 56°28' W 005°42'0 0.0
2017-Jul-13 07:30N 56°28' W 005°42'0 0.0
2017-Jul-13 07:01N 56°28' W 005°42'1 2.4
2017-Jul-13 06:30N 56°29' W 005°42'  
Track history (hours):
 
Tides and Currents Weather Stations Pressure Air Temp Water Temp Dewpoint Dewpoint Depression Visibility Wind Speed Wind Dir Waves Ship Positions

Lord Of The Glens

Operator: V Ships UK Ltd

Last reported at 2017-Jul-22 16:50 UTC. Time now 2017-Jul-22 18:28 UTC.
Position N 57°04' W 006°18'.

Length 45 m; draft 2.8 m.

Type: Passenger vessel. MMSI: 235000295.

Date/timePositionNaut miles runAvg speedWind from/ knotsBaromVisibWave heightAir tempDewpointWater temp
2017-Jul-22 16:50N 57°04' W 006°18'39 1.6
2017-Jul-21 16:48N 56°30' W 005°42'2 5.2
2017-Jul-21 16:30N 56°28' W 005°42'0 0.0
2017-Jul-21 16:00N 56°28' W 005°42'0 0.0
2017-Jul-21 15:30N 56°28' W 005°42'0 0.0
2017-Jul-21 15:00N 56°28' W 005°42'0 0.0
2017-Jul-21 14:30N 56°28' W 005°42'0 0.0
2017-Jul-21 14:00N 56°28' W 005°42'0 0.0
2017-Jul-21 13:30N 56°28' W 005°42'0 0.0
2017-Jul-21 13:00N 56°28' W 005°42'0 0.0
2017-Jul-21 12:30N 56°28' W 005°42'0 0.0
2017-Jul-21 12:00N 56°28' W 005°42'0 0.0
2017-Jul-21 11:30N 56°28' W 005°42'0 0.0
2017-Jul-21 11:00N 56°28' W 005°42'0 0.0
2017-Jul-21 10:30N 56°28' W 005°42'0 0.0
2017-Jul-21 10:00N 56°28' W 005°42'0 0.0
2017-Jul-21 09:30N 56°28' W 005°42'0 0.0
2017-Jul-21 09:00N 56°28' W 005°42'0 0.0
2017-Jul-21 08:30N 56°28' W 005°42'0 0.0
2017-Jul-21 08:00N 56°28' W 005°42'0 0.0
2017-Jul-21 07:30N 56°28' W 005°42'0 0.0
2017-Jul-21 07:00N 56°28' W 005°42'3 6.2
2017-Jul-21 06:30N 56°27' W 005°37'510.1
2017-Jul-21 06:00N 56°25' W 005°29'0 0.6
2017-Jul-21 05:30N 56°25' W 005°29'0 0.0
2017-Jul-21 04:59N 56°25' W 005°29'0 0.0
2017-Jul-21 04:11N 56°25' W 005°29'0 0.0
2017-Jul-21 04:00N 56°25' W 005°29'0 0.0
2017-Jul-21 03:24N 56°25' W 005°29'0 0.0
2017-Jul-21 03:00N 56°25' W 005°29'0 0.0
2017-Jul-21 02:29N 56°25' W 005°29'0 0.0
2017-Jul-21 02:00N 56°25' W 005°29'0 0.0
2017-Jul-21 01:28N 56°25' W 005°29'0 0.0
2017-Jul-21 00:59N 56°25' W 005°29'0 0.0
2017-Jul-21 00:30N 56°25' W 005°29'0 0.0
2017-Jul-20 23:56N 56°25' W 005°29'0 0.0
2017-Jul-20 21:52N 56°25' W 005°29'0 0.0
2017-Jul-20 20:55N 56°25' W 005°29'0 0.0
2017-Jul-20 20:15N 56°25' W 005°29'0 0.0
2017-Jul-20 20:00N 56°25' W 005°29'0 0.0
2017-Jul-20 19:30N 56°25' W 005°29'0 0.0
2017-Jul-20 18:58N 56°25' W 005°29'0 0.0
2017-Jul-20 18:29N 56°25' W 005°29'0 0.0
2017-Jul-20 17:55N 56°25' W 005°29'0 0.0
2017-Jul-20 17:26N 56°25' W 005°29'0 0.0
2017-Jul-20 16:57N 56°25' W 005°29'0 0.0
2017-Jul-20 16:30N 56°25' W 005°29'0 0.0
2017-Jul-20 16:00N 56°25' W 005°29'0 0.0
2017-Jul-20 15:27N 56°25' W 005°29'0 0.0
2017-Jul-20 14:39N 56°25' W 005°29'0 0.0
2017-Jul-20 14:00N 56°25' W 005°29'0 0.0
2017-Jul-20 13:21N 56°25' W 005°29'0 0.0
2017-Jul-20 10:57N 56°25' W 005°29'0 0.0
2017-Jul-20 10:11N 56°25' W 005°29'0 0.0
2017-Jul-20 09:53N 56°25' W 005°29'1 3.1
2017-Jul-20 09:30N 56°26' W 005°30'4 8.1
2017-Jul-20 09:00N 56°30' W 005°28'4 8.8
2017-Jul-20 08:30N 56°34' W 005°25'4 8.0
2017-Jul-20 08:00N 56°37' W 005°22'5 8.8
2017-Jul-20 07:25N 56°42' W 005°16'  
2017-Jul-14 11:21N 56°47' W 005°11'410.8
2017-Jul-14 11:00N 56°44' W 005°14'510.4
2017-Jul-14 10:30N 56°39' W 005°19'510.6
2017-Jul-14 10:00N 56°35' W 005°25'5 9.9
2017-Jul-14 09:30N 56°30' W 005°28'5 9.9
2017-Jul-14 08:59N 56°25' W 005°29'0 0.1
2017-Jul-14 04:36N 56°25' W 005°29'0 0.0
2017-Jul-14 04:18N 56°25' W 005°29'0 0.0
2017-Jul-14 00:03N 56°25' W 005°29'0 0.0
2017-Jul-13 23:45N 56°25' W 005°29'0 0.0
2017-Jul-13 23:27N 56°25' W 005°29'0 0.0
2017-Jul-13 19:57N 56°25' W 005°29'0 0.0
2017-Jul-13 17:19N 56°25' W 005°29'3 8.8
2017-Jul-13 17:00N 56°26' W 005°33'5 9.7
2017-Jul-13 16:30N 56°28' W 005°41'1 1.6
2017-Jul-13 15:59N 56°28' W 005°42'0 0.0
2017-Jul-13 15:23N 56°28' W 005°42'0 0.0
2017-Jul-13 14:56N 56°28' W 005°42'0 0.0
2017-Jul-13 14:23N 56°28' W 005°42'0 0.0
2017-Jul-13 13:53N 56°28' W 005°42'0 0.0
2017-Jul-13 13:23N 56°28' W 005°42'0 0.0
2017-Jul-13 12:59N 56°28' W 005°42'0 0.0
2017-Jul-13 11:41N 56°28' W 005°42'0 0.0
2017-Jul-13 11:29N 56°28' W 005°42'0 0.0
2017-Jul-13 10:20N 56°28' W 005°42'0 0.0
2017-Jul-13 09:59N 56°28' W 005°42'0 0.0
2017-Jul-13 09:30N 56°28' W 005°42'0 0.0
2017-Jul-13 09:00N 56°28' W 005°42'0 0.0
2017-Jul-13 08:30N 56°28' W 005°42'0 0.0
2017-Jul-13 08:00N 56°28' W 005°42'0 0.0
2017-Jul-13 07:30N 56°28' W 005°42'0 0.0
2017-Jul-13 07:01N 56°28' W 005°42'1 2.4
2017-Jul-13 06:30N 56°29' W 005°42'  

Dump ship's entire track history